sensor_id;sensor_type;location;lat;lon;timestamp;P1;durP1;ratioP1;P2;durP2;ratioP2
19404;SDS011;9838;49.384;8.292;2022-11-04T00:07:53;0.50;;;0.30;;
19404;SDS011;9838;49.384;8.292;2022-11-04T00:18:21;0.53;;;0.30;;
19404;SDS011;9838;49.384;8.292;2022-11-04T00:28:22;0.50;;;0.30;;
19404;SDS011;9838;49.384;8.292;2022-11-04T00:38:42;0.20;;;0.20;;
19404;SDS011;9838;49.384;8.292;2022-11-04T00:48:45;0.20;;;0.20;;
19404;SDS011;9838;49.384;8.292;2022-11-04T00:58:47;0.20;;;0.20;;
19404;SDS011;9838;49.384;8.292;2022-11-04T01:08:56;0.20;;;0.20;;
19404;SDS011;9838;49.384;8.292;2022-11-04T01:18:59;0.30;;;0.30;;
19404;SDS011;9838;49.384;8.292;2022-11-04T01:29:02;2.77;;;0.63;;
19404;SDS011;9838;49.384;8.292;2022-11-04T01:39:03;0.40;;;0.20;;
19404;SDS011;9838;49.384;8.292;2022-11-04T01:59:29;0.40;;;0.30;;
19404;SDS011;9838;49.384;8.292;2022-11-04T02:09:35;1.70;;;0.50;;
19404;SDS011;9838;49.384;8.292;2022-11-04T02:39:56;0.20;;;0.20;;
19404;SDS011;9838;49.384;8.292;2022-11-04T03:00:17;1.27;;;0.60;;
19404;SDS011;9838;49.384;8.292;2022-11-04T03:10:22;0.20;;;0.20;;
19404;SDS011;9838;49.384;8.292;2022-11-04T03:20:25;0.43;;;0.20;;
19404;SDS011;9838;49.384;8.292;2022-11-04T03:30:31;0.30;;;0.30;;
19404;SDS011;9838;49.384;8.292;2022-11-04T03:40:37;1.50;;;0.30;;
19404;SDS011;9838;49.384;8.292;2022-11-04T03:50:46;0.67;;;0.30;;
19404;SDS011;9838;49.384;8.292;2022-11-04T04:00:50;0.60;;;0.27;;
19404;SDS011;9838;49.384;8.292;2022-11-04T04:21:00;1.13;;;0.40;;
19404;SDS011;9838;49.384;8.292;2022-11-04T04:31:06;0.30;;;0.30;;
19404;SDS011;9838;49.384;8.292;2022-11-04T04:41:19;0.50;;;0.40;;
19404;SDS011;9838;49.384;8.292;2022-11-04T04:51:45;0.57;;;0.23;;
19404;SDS011;9838;49.384;8.292;2022-11-04T05:01:47;1.70;;;0.60;;
19404;SDS011;9838;49.384;8.292;2022-11-04T05:11:49;0.20;;;0.20;;
19404;SDS011;9838;49.384;8.292;2022-11-04T05:21:51;0.57;;;0.40;;
19404;SDS011;9838;49.384;8.292;2022-11-04T05:31:52;1.53;;;0.60;;
19404;SDS011;9838;49.384;8.292;2022-11-04T05:41:54;1.20;;;0.50;;
19404;SDS011;9838;49.384;8.292;2022-11-04T05:51:56;0.97;;;0.30;;
19404;SDS011;9838;49.384;8.292;2022-11-04T06:01:58;0.77;;;0.40;;
19404;SDS011;9838;49.384;8.292;2022-11-04T06:12:00;1.13;;;0.40;;
19404;SDS011;9838;49.384;8.292;2022-11-04T06:22:02;1.00;;;0.40;;
19404;SDS011;9838;49.384;8.292;2022-11-04T06:43:05;1.73;;;0.40;;
19404;SDS011;9838;49.384;8.292;2022-11-04T06:53:07;0.43;;;0.37;;
19404;SDS011;9838;49.384;8.292;2022-11-04T07:03:09;2.47;;;0.90;;
19404;SDS011;9838;49.384;8.292;2022-11-04T07:13:11;0.20;;;0.20;;
19404;SDS011;9838;49.384;8.292;2022-11-04T07:23:13;0.73;;;0.40;;
19404;SDS011;9838;49.384;8.292;2022-11-04T07:33:15;0.40;;;0.23;;
19404;SDS011;9838;49.384;8.292;2022-11-04T07:43:17;1.60;;;0.60;;
19404;SDS011;9838;49.384;8.292;2022-11-04T07:53:20;0.83;;;0.30;;
19404;SDS011;9838;49.384;8.292;2022-11-04T08:03:21;0.50;;;0.20;;
19404;SDS011;9838;49.384;8.292;2022-11-04T08:13:25;0.40;;;0.27;;
19404;SDS011;9838;49.384;8.292;2022-11-04T08:23:29;0.77;;;0.30;;
19404;SDS011;9838;49.384;8.292;2022-11-04T08:33:31;0.30;;;0.20;;
19404;SDS011;9838;49.384;8.292;2022-11-04T08:43:34;0.60;;;0.40;;
19404;SDS011;9838;49.384;8.292;2022-11-04T08:53:36;0.40;;;0.30;;
19404;SDS011;9838;49.384;8.292;2022-11-04T09:03:39;1.53;;;0.40;;
19404;SDS011;9838;49.384;8.292;2022-11-04T09:13:42;0.40;;;0.30;;
19404;SDS011;9838;49.384;8.292;2022-11-04T09:23:44;2.30;;;0.40;;
19404;SDS011;9838;49.384;8.292;2022-11-04T09:33:46;0.50;;;0.20;;
19404;SDS011;9838;49.384;8.292;2022-11-04T09:43:51;1.03;;;0.40;;
19404;SDS011;9838;49.384;8.292;2022-11-04T09:53:55;1.43;;;0.40;;
19404;SDS011;9838;49.384;8.292;2022-11-04T10:24:41;0.70;;;0.37;;
19404;SDS011;9838;49.384;8.292;2022-11-04T10:34:49;0.37;;;0.30;;
19404;SDS011;9838;49.384;8.292;2022-11-04T10:44:54;2.17;;;0.37;;
19404;SDS011;9838;49.384;8.292;2022-11-04T10:54:56;1.80;;;0.60;;
19404;SDS011;9838;49.384;8.292;2022-11-04T11:05:11;1.43;;;0.57;;
19404;SDS011;9838;49.384;8.292;2022-11-04T11:35:31;2.10;;;0.50;;
19404;SDS011;9838;49.384;8.292;2022-11-04T11:45:33;0.70;;;0.53;;
19404;SDS011;9838;49.384;8.292;2022-11-04T11:55:36;0.27;;;0.20;;
19404;SDS011;9838;49.384;8.292;2022-11-04T12:05:44;3.93;;;0.63;;
19404;SDS011;9838;49.384;8.292;2022-11-04T12:57:14;2.27;;;0.40;;
19404;SDS011;9838;49.384;8.292;2022-11-04T13:07:20;1.53;;;0.53;;
19404;SDS011;9838;49.384;8.292;2022-11-04T13:17:32;2.37;;;0.40;;
19404;SDS011;9838;49.384;8.292;2022-11-04T13:27:36;0.37;;;0.30;;
19404;SDS011;9838;49.384;8.292;2022-11-04T13:37:47;0.80;;;0.60;;
19404;SDS011;9838;49.384;8.292;2022-11-04T13:47:59;0.53;;;0.47;;
19404;SDS011;9838;49.384;8.292;2022-11-04T13:58:02;1.60;;;0.57;;
19404;SDS011;9838;49.384;8.292;2022-11-04T14:18:25;0.93;;;0.60;;
19404;SDS011;9838;49.384;8.292;2022-11-04T14:28:27;2.43;;;0.87;;
19404;SDS011;9838;49.384;8.292;2022-11-04T14:38:30;0.57;;;0.33;;
19404;SDS011;9838;49.384;8.292;2022-11-04T14:48:33;1.60;;;0.30;;
19404;SDS011;9838;49.384;8.292;2022-11-04T14:58:35;1.07;;;0.70;;
19404;SDS011;9838;49.384;8.292;2022-11-04T15:18:42;0.83;;;0.50;;
19404;SDS011;9838;49.384;8.292;2022-11-04T15:28:45;1.00;;;0.40;;
19404;SDS011;9838;49.384;8.292;2022-11-04T15:38:53;2.53;;;1.30;;
19404;SDS011;9838;49.384;8.292;2022-11-04T15:49:04;0.90;;;0.70;;
19404;SDS011;9838;49.384;8.292;2022-11-04T15:59:07;3.03;;;1.57;;
19404;SDS011;9838;49.384;8.292;2022-11-04T16:09:18;1.80;;;0.90;;
19404;SDS011;9838;49.384;8.292;2022-11-04T16:19:23;1.50;;;0.70;;
19404;SDS011;9838;49.384;8.292;2022-11-04T16:29:34;2.23;;;1.50;;
19404;SDS011;9838;49.384;8.292;2022-11-04T16:39:37;2.80;;;2.13;;
19404;SDS011;9838;49.384;8.292;2022-11-04T16:49:39;2.77;;;1.47;;
19404;SDS011;9838;49.384;8.292;2022-11-04T16:59:42;1.87;;;1.03;;
19404;SDS011;9838;49.384;8.292;2022-11-04T17:09:44;0.93;;;0.50;;
19404;SDS011;9838;49.384;8.292;2022-11-04T17:19:46;1.17;;;0.47;;
19404;SDS011;9838;49.384;8.292;2022-11-04T17:29:48;1.20;;;0.70;;
19404;SDS011;9838;49.384;8.292;2022-11-04T17:39:50;1.93;;;1.00;;
19404;SDS011;9838;49.384;8.292;2022-11-04T17:49:52;1.83;;;0.73;;
19404;SDS011;9838;49.384;8.292;2022-11-04T17:59:55;0.80;;;0.60;;
19404;SDS011;9838;49.384;8.292;2022-11-04T18:09:57;1.97;;;1.27;;
19404;SDS011;9838;49.384;8.292;2022-11-04T18:20:00;2.47;;;1.60;;
19404;SDS011;9838;49.384;8.292;2022-11-04T18:30:02;1.30;;;0.80;;
19404;SDS011;9838;49.384;8.292;2022-11-04T18:40:05;1.97;;;1.10;;
19404;SDS011;9838;49.384;8.292;2022-11-04T18:50:07;1.63;;;1.03;;
19404;SDS011;9838;49.384;8.292;2022-11-04T19:00:10;2.23;;;1.17;;
19404;SDS011;9838;49.384;8.292;2022-11-04T19:10:12;1.17;;;0.83;;
19404;SDS011;9838;49.384;8.292;2022-11-04T19:20:14;2.20;;;1.30;;
19404;SDS011;9838;49.384;8.292;2022-11-04T19:30:16;5.50;;;4.23;;
19404;SDS011;9838;49.384;8.292;2022-11-04T19:40:19;3.50;;;2.47;;
19404;SDS011;9838;49.384;8.292;2022-11-04T19:50:21;3.17;;;2.33;;
19404;SDS011;9838;49.384;8.292;2022-11-04T20:00:23;2.40;;;1.70;;
19404;SDS011;9838;49.384;8.292;2022-11-04T20:10:25;2.10;;;1.43;;
19404;SDS011;9838;49.384;8.292;2022-11-04T20:20:27;3.57;;;1.40;;
19404;SDS011;9838;49.384;8.292;2022-11-04T20:30:30;2.37;;;1.63;;
19404;SDS011;9838;49.384;8.292;2022-11-04T20:40:32;4.70;;;2.47;;
19404;SDS011;9838;49.384;8.292;2022-11-04T20:50:34;5.00;;;2.17;;
19404;SDS011;9838;49.384;8.292;2022-11-04T21:00:37;5.13;;;2.90;;
19404;SDS011;9838;49.384;8.292;2022-11-04T21:10:38;2.97;;;1.13;;
19404;SDS011;9838;49.384;8.292;2022-11-04T21:20:40;1.63;;;1.20;;
19404;SDS011;9838;49.384;8.292;2022-11-04T21:30:44;4.37;;;2.07;;
19404;SDS011;9838;49.384;8.292;2022-11-04T21:40:46;2.30;;;1.37;;
19404;SDS011;9838;49.384;8.292;2022-11-04T21:50:48;1.90;;;1.30;;
19404;SDS011;9838;49.384;8.292;2022-11-04T22:00:53;3.20;;;2.23;;
19404;SDS011;9838;49.384;8.292;2022-11-04T22:10:55;2.67;;;1.40;;
19404;SDS011;9838;49.384;8.292;2022-11-04T22:21:00;3.70;;;1.97;;
19404;SDS011;9838;49.384;8.292;2022-11-04T22:31:06;1.73;;;1.10;;
19404;SDS011;9838;49.384;8.292;2022-11-04T22:41:10;1.87;;;1.13;;
19404;SDS011;9838;49.384;8.292;2022-11-04T22:51:13;2.17;;;1.13;;
19404;SDS011;9838;49.384;8.292;2022-11-04T23:01:15;1.13;;;0.80;;
19404;SDS011;9838;49.384;8.292;2022-11-04T23:11:18;1.83;;;0.80;;
19404;SDS011;9838;49.384;8.292;2022-11-04T23:21:39;4.83;;;1.00;;
19404;SDS011;9838;49.384;8.292;2022-11-04T23:31:59;3.50;;;0.90;;
19404;SDS011;9838;49.384;8.292;2022-11-04T23:42:02;1.80;;;0.77;;
19404;SDS011;9838;49.384;8.292;2022-11-04T23:52:15;1.30;;;0.90;;
